sensor_id;sensor_type;location;lat;lon;timestamp;P1;durP1;ratioP1;P2;durP2;ratioP2
4527;SDS011;62320;51.520;6.818;2023-04-08T00:03:43;25.40;;;12.20;;
4527;SDS011;62320;51.520;6.818;2023-04-08T00:13:45;25.83;;;12.00;;
4527;SDS011;62320;51.520;6.818;2023-04-08T00:23:46;28.05;;;12.90;;
4527;SDS011;62320;51.520;6.818;2023-04-08T00:33:48;30.97;;;13.37;;
4527;SDS011;62320;51.520;6.818;2023-04-08T00:43:49;29.87;;;14.13;;
4527;SDS011;62320;51.520;6.818;2023-04-08T00:53:52;28.52;;;13.77;;
4527;SDS011;62320;51.520;6.818;2023-04-08T01:03:58;32.70;;;13.88;;
4527;SDS011;62320;51.520;6.818;2023-04-08T01:14:16;31.60;;;13.83;;
4527;SDS011;62320;51.520;6.818;2023-04-08T01:24:25;32.43;;;15.37;;
4527;SDS011;62320;51.520;6.818;2023-04-08T01:34:30;33.83;;;14.40;;
4527;SDS011;62320;51.520;6.818;2023-04-08T01:44:32;32.33;;;15.33;;
4527;SDS011;62320;51.520;6.818;2023-04-08T01:54:36;33.90;;;15.10;;
4527;SDS011;62320;51.520;6.818;2023-04-08T02:04:37;32.35;;;14.43;;
4527;SDS011;62320;51.520;6.818;2023-04-08T02:14:39;31.30;;;14.77;;
4527;SDS011;62320;51.520;6.818;2023-04-08T02:24:41;33.27;;;15.87;;
4527;SDS011;62320;51.520;6.818;2023-04-08T02:34:44;33.55;;;14.63;;
4527;SDS011;62320;51.520;6.818;2023-04-08T02:44:47;30.75;;;15.00;;
4527;SDS011;62320;51.520;6.818;2023-04-08T02:54:49;34.77;;;15.70;;
4527;SDS011;62320;51.520;6.818;2023-04-08T03:04:50;31.30;;;13.93;;
4527;SDS011;62320;51.520;6.818;2023-04-08T03:14:51;29.88;;;13.85;;
4527;SDS011;62320;51.520;6.818;2023-04-08T03:24:53;28.57;;;14.30;;
4527;SDS011;62320;51.520;6.818;2023-04-08T03:34:55;28.63;;;12.97;;
4527;SDS011;62320;51.520;6.818;2023-04-08T03:44:56;26.63;;;13.25;;
4527;SDS011;62320;51.520;6.818;2023-04-08T03:54:58;31.30;;;14.43;;
4527;SDS011;62320;51.520;6.818;2023-04-08T04:05:00;32.57;;;14.47;;
4527;SDS011;62320;51.520;6.818;2023-04-08T04:15:02;34.72;;;15.93;;
4527;SDS011;62320;51.520;6.818;2023-04-08T04:25:04;36.20;;;16.95;;
4527;SDS011;62320;51.520;6.818;2023-04-08T04:35:06;34.00;;;16.10;;
4527;SDS011;62320;51.520;6.818;2023-04-08T04:45:07;35.03;;;14.20;;
4527;SDS011;62320;51.520;6.818;2023-04-08T04:55:10;31.10;;;12.75;;
4527;SDS011;62320;51.520;6.818;2023-04-08T05:05:11;30.53;;;12.67;;
4527;SDS011;62320;51.520;6.818;2023-04-08T05:15:13;48.53;;;14.20;;
4527;SDS011;62320;51.520;6.818;2023-04-08T05:25:14;29.85;;;13.05;;
4527;SDS011;62320;51.520;6.818;2023-04-08T05:35:16;32.37;;;12.27;;
4527;SDS011;62320;51.520;6.818;2023-04-08T05:45:17;38.80;;;14.37;;
4527;SDS011;62320;51.520;6.818;2023-04-08T05:55:19;23.65;;;11.32;;
4527;SDS011;62320;51.520;6.818;2023-04-08T06:05:20;22.08;;;11.43;;
4527;SDS011;62320;51.520;6.818;2023-04-08T06:15:22;25.50;;;11.40;;
4527;SDS011;62320;51.520;6.818;2023-04-08T06:25:23;35.47;;;13.00;;
4527;SDS011;62320;51.520;6.818;2023-04-08T06:35:25;35.13;;;13.68;;
4527;SDS011;62320;51.520;6.818;2023-04-08T06:45:28;29.23;;;11.30;;
4527;SDS011;62320;51.520;6.818;2023-04-08T06:55:30;25.90;;;12.53;;
4527;SDS011;62320;51.520;6.818;2023-04-08T07:05:31;31.65;;;15.23;;
4527;SDS011;62320;51.520;6.818;2023-04-08T07:15:33;40.77;;;17.07;;
4527;SDS011;62320;51.520;6.818;2023-04-08T07:25:34;37.07;;;13.87;;
4527;SDS011;62320;51.520;6.818;2023-04-08T07:35:36;35.95;;;15.73;;
4527;SDS011;62320;51.520;6.818;2023-04-08T07:45:38;35.63;;;17.13;;
4527;SDS011;62320;51.520;6.818;2023-04-08T07:55:39;27.63;;;14.10;;
4527;SDS011;62320;51.520;6.818;2023-04-08T08:05:42;28.93;;;15.63;;
4527;SDS011;62320;51.520;6.818;2023-04-08T08:15:44;33.65;;;16.73;;
4527;SDS011;62320;51.520;6.818;2023-04-08T08:25:45;27.43;;;15.27;;
4527;SDS011;62320;51.520;6.818;2023-04-08T08:35:47;30.20;;;16.00;;
4527;SDS011;62320;51.520;6.818;2023-04-08T08:45:48;28.25;;;15.38;;
4527;SDS011;62320;51.520;6.818;2023-04-08T08:55:50;28.37;;;15.47;;
4527;SDS011;62320;51.520;6.818;2023-04-08T09:06:14;31.00;;;16.87;;
4527;SDS011;62320;51.520;6.818;2023-04-08T09:16:18;28.98;;;15.70;;
4527;SDS011;62320;51.520;6.818;2023-04-08T09:26:21;26.65;;;14.27;;
4527;SDS011;62320;51.520;6.818;2023-04-08T09:36:24;26.37;;;14.07;;
4527;SDS011;62320;51.520;6.818;2023-04-08T09:46:31;22.90;;;12.47;;
4527;SDS011;62320;51.520;6.818;2023-04-08T09:56:35;23.98;;;12.60;;
4527;SDS011;62320;51.520;6.818;2023-04-08T10:06:41;21.90;;;11.50;;
4527;SDS011;62320;51.520;6.818;2023-04-08T10:16:43;18.07;;;9.37;;
4527;SDS011;62320;51.520;6.818;2023-04-08T10:26:44;16.08;;;8.05;;
4527;SDS011;62320;51.520;6.818;2023-04-08T10:36:46;10.87;;;5.37;;
4527;SDS011;62320;51.520;6.818;2023-04-08T10:46:49;11.30;;;5.70;;
4527;SDS011;62320;51.520;6.818;2023-04-08T10:56:52;13.00;;;7.10;;
4527;SDS011;62320;51.520;6.818;2023-04-08T11:06:53;13.23;;;5.93;;
4527;SDS011;62320;51.520;6.818;2023-04-08T11:16:55;14.53;;;5.27;;
4527;SDS011;62320;51.520;6.818;2023-04-08T11:26:57;11.93;;;6.43;;
4527;SDS011;62320;51.520;6.818;2023-04-08T11:36:59;12.13;;;5.28;;
4527;SDS011;62320;51.520;6.818;2023-04-08T11:47:01;10.40;;;4.97;;
4527;SDS011;62320;51.520;6.818;2023-04-08T11:57:03;11.23;;;5.70;;
4527;SDS011;62320;51.520;6.818;2023-04-08T12:07:04;10.20;;;4.18;;
4527;SDS011;62320;51.520;6.818;2023-04-08T12:17:06;10.87;;;4.93;;
4527;SDS011;62320;51.520;6.818;2023-04-08T12:27:07;13.53;;;6.10;;
4527;SDS011;62320;51.520;6.818;2023-04-08T12:37:09;12.60;;;5.63;;
4527;SDS011;62320;51.520;6.818;2023-04-08T12:47:11;12.13;;;6.20;;
4527;SDS011;62320;51.520;6.818;2023-04-08T12:57:13;12.03;;;6.50;;
4527;SDS011;62320;51.520;6.818;2023-04-08T13:07:14;10.53;;;5.30;;
4527;SDS011;62320;51.520;6.818;2023-04-08T13:17:15;10.95;;;6.30;;
4527;SDS011;62320;51.520;6.818;2023-04-08T13:27:17;11.57;;;6.10;;
4527;SDS011;62320;51.520;6.818;2023-04-08T13:37:18;12.53;;;6.40;;
4527;SDS011;62320;51.520;6.818;2023-04-08T13:47:20;15.25;;;7.47;;
4527;SDS011;62320;51.520;6.818;2023-04-08T13:57:21;13.67;;;7.23;;
4527;SDS011;62320;51.520;6.818;2023-04-08T14:07:23;13.13;;;6.70;;
4527;SDS011;62320;51.520;6.818;2023-04-08T14:17:24;12.98;;;7.07;;
4527;SDS011;62320;51.520;6.818;2023-04-08T14:27:26;13.73;;;7.35;;
4527;SDS011;62320;51.520;6.818;2023-04-08T14:37:28;13.70;;;7.80;;
4527;SDS011;62320;51.520;6.818;2023-04-08T14:47:31;11.50;;;6.30;;
4527;SDS011;62320;51.520;6.818;2023-04-08T14:57:34;12.43;;;6.22;;
4527;SDS011;62320;51.520;6.818;2023-04-08T15:07:35;16.47;;;7.83;;
4527;SDS011;62320;51.520;6.818;2023-04-08T15:17:37;19.60;;;10.30;;
4527;SDS011;62320;51.520;6.818;2023-04-08T15:27:38;19.30;;;11.13;;
4527;SDS011;62320;51.520;6.818;2023-04-08T15:37:40;23.67;;;12.53;;
4527;SDS011;62320;51.520;6.818;2023-04-08T15:47:41;27.67;;;14.13;;
4527;SDS011;62320;51.520;6.818;2023-04-08T15:57:43;24.60;;;13.82;;
4527;SDS011;62320;51.520;6.818;2023-04-08T16:07:44;24.55;;;12.95;;
4527;SDS011;62320;51.520;6.818;2023-04-08T16:17:52;15.83;;;9.00;;
4527;SDS011;62320;51.520;6.818;2023-04-08T16:27:54;20.43;;;10.40;;
4527;SDS011;62320;51.520;6.818;2023-04-08T16:37:56;16.85;;;8.75;;
4527;SDS011;62320;51.520;6.818;2023-04-08T16:47:57;17.83;;;9.40;;
4527;SDS011;62320;51.520;6.818;2023-04-08T16:58:01;22.33;;;11.40;;
4527;SDS011;62320;51.520;6.818;2023-04-08T17:08:03;18.25;;;9.88;;
4527;SDS011;62320;51.520;6.818;2023-04-08T17:18:04;18.90;;;10.03;;
4527;SDS011;62320;51.520;6.818;2023-04-08T17:28:06;21.87;;;11.50;;
4527;SDS011;62320;51.520;6.818;2023-04-08T17:38:08;25.90;;;12.88;;
4527;SDS011;62320;51.520;6.818;2023-04-08T17:48:09;26.02;;;13.20;;
4527;SDS011;62320;51.520;6.818;2023-04-08T17:58:11;19.30;;;10.70;;
4527;SDS011;62320;51.520;6.818;2023-04-08T18:08:12;23.57;;;11.83;;
4527;SDS011;62320;51.520;6.818;2023-04-08T18:18:14;27.02;;;13.40;;
4527;SDS011;62320;51.520;6.818;2023-04-08T18:28:19;31.00;;;14.83;;
4527;SDS011;62320;51.520;6.818;2023-04-08T18:38:22;25.37;;;13.43;;
4527;SDS011;62320;51.520;6.818;2023-04-08T18:48:23;32.75;;;16.50;;
4527;SDS011;62320;51.520;6.818;2023-04-08T18:58:25;23.93;;;11.93;;
4527;SDS011;62320;51.520;6.818;2023-04-08T19:08:27;24.60;;;13.03;;
4527;SDS011;62320;51.520;6.818;2023-04-08T19:18:29;39.97;;;17.48;;
4527;SDS011;62320;51.520;6.818;2023-04-08T19:28:31;31.67;;;15.10;;
4527;SDS011;62320;51.520;6.818;2023-04-08T19:38:33;39.30;;;18.13;;
4527;SDS011;62320;51.520;6.818;2023-04-08T19:48:34;32.50;;;15.30;;
4527;SDS011;62320;51.520;6.818;2023-04-08T19:58:36;38.17;;;17.90;;
4527;SDS011;62320;51.520;6.818;2023-04-08T20:08:38;35.93;;;15.67;;
4527;SDS011;62320;51.520;6.818;2023-04-08T20:18:39;33.40;;;14.80;;
4527;SDS011;62320;51.520;6.818;2023-04-08T20:28:41;35.67;;;16.40;;
4527;SDS011;62320;51.520;6.818;2023-04-08T20:38:44;47.70;;;20.67;;
4527;SDS011;62320;51.520;6.818;2023-04-08T20:48:46;41.90;;;19.37;;
4527;SDS011;62320;51.520;6.818;2023-04-08T20:58:47;38.45;;;15.65;;
4527;SDS011;62320;51.520;6.818;2023-04-08T21:08:49;35.28;;;16.00;;
4527;SDS011;62320;51.520;6.818;2023-04-08T21:18:51;43.57;;;19.47;;
4527;SDS011;62320;51.520;6.818;2023-04-08T21:28:53;37.13;;;17.07;;
4527;SDS011;62320;51.520;6.818;2023-04-08T21:38:54;41.47;;;17.98;;
4527;SDS011;62320;51.520;6.818;2023-04-08T21:48:57;35.07;;;14.73;;
4527;SDS011;62320;51.520;6.818;2023-04-08T21:58:58;39.87;;;15.67;;
4527;SDS011;62320;51.520;6.818;2023-04-08T22:08:59;35.92;;;15.00;;
4527;SDS011;62320;51.520;6.818;2023-04-08T22:19:01;34.80;;;14.77;;
4527;SDS011;62320;51.520;6.818;2023-04-08T22:29:03;29.73;;;12.57;;
4527;SDS011;62320;51.520;6.818;2023-04-08T22:39:04;37.83;;;14.60;;
4527;SDS011;62320;51.520;6.818;2023-04-08T22:49:05;30.58;;;12.45;;
4527;SDS011;62320;51.520;6.818;2023-04-08T22:59:07;30.53;;;13.23;;
4527;SDS011;62320;51.520;6.818;2023-04-08T23:09:08;33.13;;;14.43;;
4527;SDS011;62320;51.520;6.818;2023-04-08T23:19:10;34.05;;;13.95;;
4527;SDS011;62320;51.520;6.818;2023-04-08T23:29:11;33.13;;;15.43;;
4527;SDS011;62320;51.520;6.818;2023-04-08T23:39:13;32.07;;;12.90;;
4527;SDS011;62320;51.520;6.818;2023-04-08T23:49:14;36.72;;;14.55;;
4527;SDS011;62320;51.520;6.818;2023-04-08T23:59:16;36.93;;;15.03;;
